Terminal Aerodrome Forecast
Issued by NWS

Home | Current Version | Previous Version | Text Only | Print | Product List | Glossary On
Versions: 1 2 3 4 5 6 7 8 9 10 11 12 13 14 15 16 17 18 19 20 21 22 23 24 25 26 27 28 29 30
021
FTUS43 KDMX 291731
TAFFOD
TAF
KFOD 291731Z 2918/3018 06014G20KT P6SM VCSH SCT040 OVC100
     FM292100 06016G24KT P6SM SCT020 OVC060
     FM300600 06016G24KT P6SM VCSH OVC021
     FM301300 05020G28KT 5SM -RA OVC009=

USA.gov is the U.S. government's official web portal to all federal, state and local government web resources and services.